Time;durP1;ratioP1;P1;durP2;ratioP2;P2;SDS_P1;SDS_P2;PMS_P1;PMS_P2;Temp;Humidity;BMP_temperature;BMP_pressure;BME280_temperature;BME280_humidity;BME280_pressure;Samples;Min_cycle;Max_cycle;Signal;HPM_P1;HPM_P2
2022/09/20 00:01:05;;;;;;;5.53;1.73;;;14.00;99.90;;;;;;5100620;28;20059;-80
2022/09/20 00:03:31;;;;;;;5.72;1.70;;;14.00;99.90;;;;;;5109911;28;20029;-80
2022/09/20 00:06:00;;;;;;;1.95;1.33;;;14.00;99.90;;;;;;5095696;28;20110;-80
2022/09/20 00:08:26;;;;;;;6.57;1.75;;;14.00;99.90;;;;;;5094349;28;20012;-80
2022/09/20 00:10:56;;;;;;;4.00;1.70;;;14.00;99.90;;;;;;5094952;28;20032;-80
2022/09/20 00:13:22;;;;;;;3.58;1.73;;;14.00;99.90;;;;;;5097631;28;20051;-81
2022/09/20 00:15:47;;;;;;;3.45;1.67;;;14.00;99.90;;;;;;5098047;28;20029;-80
2022/09/20 00:18:13;;;;;;;4.75;1.90;;;14.00;99.90;;;;;;5096619;28;20028;-81
2022/09/20 00:20:46;;;;;;;4.72;1.65;;;14.00;99.90;;;;;;5088119;28;20036;-80
2022/09/20 00:23:12;;;;;;;2.92;1.80;;;14.00;99.90;;;;;;5106273;28;20028;-81
2022/09/20 00:25:38;;;;;;;3.10;1.50;;;14.00;99.90;;;;;;5102541;28;20490;-81
2022/09/20 00:28:05;;;;;;;5.40;1.80;;;14.00;99.90;;;;;;5103664;28;20028;-81
2022/09/20 00:30:32;;;;;;;2.58;1.63;;;14.00;99.90;;;;;;5100432;28;20038;-80
2022/09/20 00:32:58;;;;;;;5.25;1.42;;;14.00;99.90;;;;;;5099603;28;20016;-80
2022/09/20 00:35:24;;;;;;;2.50;1.60;;;14.00;99.90;;;;;;5097729;28;20032;-80
2022/09/20 00:37:50;;;;;;;5.43;1.73;;;14.00;99.90;;;;;;5102309;28;20488;-80
2022/09/20 00:40:21;;;;;;;8.40;1.73;;;14.00;99.90;;;;;;5093300;28;20035;-80
2022/09/20 00:42:48;;;;;;;4.03;1.60;;;14.00;99.90;;;;;;5099134;28;20036;-81
2022/09/20 00:45:28;;;;;;;4.55;1.50;;;14.00;99.90;;;;;;5094486;28;20534;-80
2022/09/20 00:48:05;;;;;;;3.60;1.50;;;14.00;99.90;;;;;;5094395;28;20089;-81
2022/09/20 00:50:34;;;;;;;4.15;1.70;;;14.00;99.90;;;;;;5093790;28;20035;-80
2022/09/20 00:53:15;;;;;;;4.35;1.33;;;14.00;99.90;;;;;;5094322;28;20515;-80
2022/09/20 00:55:55;;;;;;;2.00;1.30;;;14.00;99.90;;;;;;5092549;28;20059;-80
2022/09/20 00:58:23;;;;;;;2.67;1.35;;;13.90;99.90;;;;;;5095222;28;20362;-80
2022/09/20 01:00:53;;;;;;;4.00;1.45;;;14.00;99.90;;;;;;5100924;28;20031;-80
2022/09/20 01:03:21;;;;;;;2.70;1.50;;;14.00;99.90;;;;;;5084861;28;20488;-80
2022/09/20 01:05:48;;;;;;;2.83;1.25;;;14.00;99.90;;;;;;5089820;28;20499;-80
2022/09/20 01:08:14;;;;;;;4.50;1.38;;;14.00;99.90;;;;;;5100790;28;20048;-81
2022/09/20 01:10:40;;;;;;;4.18;1.58;;;14.00;99.90;;;;;;5091052;28;20036;-81
2022/09/20 01:13:06;;;;;;;4.50;1.70;;;14.00;99.90;;;;;;5089173;28;20032;-80
2022/09/20 01:15:34;;;;;;;5.75;1.50;;;14.00;99.90;;;;;;5098864;28;20024;-81
2022/09/20 01:18:01;;;;;;;2.72;1.02;;;14.00;99.90;;;;;;5099541;28;20532;-81
2022/09/20 01:20:32;;;;;;;4.93;1.65;;;14.00;99.90;;;;;;5090631;28;20028;-81
2022/09/20 01:23:33;;;;;;;3.22;1.38;;;14.00;99.90;;;;;;5074146;28;20044;-80
2022/09/20 01:26:28;;;;;;;5.70;1.67;;;14.00;99.90;;;;;;5088233;28;20636;-81
2022/09/20 01:29:25;;;;;;;2.17;1.20;;;14.00;99.90;;;;;;5091863;28;20032;-81
2022/09/20 01:31:59;;;;;;;2.60;1.83;;;14.00;99.90;;;;;;5091079;28;20476;-80
2022/09/20 01:34:30;;;;;;;3.60;1.50;;;14.00;99.90;;;;;;5093340;28;20023;-80
2022/09/20 01:37:20;;;;;;;3.60;1.42;;;14.00;99.90;;;;;;5097380;28;20764;-81
2022/09/20 01:40:11;;;;;;;5.07;1.77;;;14.00;99.90;;;;;;5094945;28;20368;-81
2022/09/20 01:42:45;;;;;;;4.22;1.65;;;14.00;99.90;;;;;;5095050;28;20016;-80
2022/09/20 01:45:23;;;;;;;2.28;1.60;;;14.00;99.90;;;;;;5098238;28;20035;-81
2022/09/20 01:47:58;;;;;;;5.22;1.95;;;14.00;99.90;;;;;;5099964;28;20028;-81
2022/09/20 01:50:35;;;;;;;5.18;1.75;;;14.00;99.90;;;;;;5100824;28;20035;-81
2022/09/20 01:53:16;;;;;;;3.17;1.90;;;14.00;99.90;;;;;;5099622;28;20399;-81
2022/09/20 01:56:19;;;;;;;3.38;1.60;;;14.00;99.90;;;;;;5099140;28;20024;-80
2022/09/20 01:59:16;;;;;;;3.35;1.52;;;14.00;99.90;;;;;;5088442;28;20658;-81
2022/09/20 02:02:00;;;;;;;1.52;1.42;;;14.00;99.90;;;;;;5094465;28;20024;-80
2022/09/20 02:04:54;;;;;;;3.40;1.58;;;13.90;99.90;;;;;;5102268;28;20101;-80
2022/09/20 02:07:19;;;;;;;5.72;1.70;;;13.90;99.90;;;;;;5085823;28;20029;-81
2022/09/20 02:10:16;;;;;;;6.18;1.80;;;14.00;99.90;;;;;;5091854;28;20383;-81
2022/09/20 02:12:53;;;;;;;3.83;1.88;;;13.90;99.90;;;;;;5095354;28;20035;-81
2022/09/20 02:15:41;;;;;;;6.25;2.05;;;13.90;99.90;;;;;;5086851;28;20025;-80
2022/09/20 02:18:19;;;;;;;3.50;1.45;;;13.90;99.90;;;;;;5077600;28;20065;-80
2022/09/20 02:21:08;;;;;;;2.75;1.63;;;13.90;99.90;;;;;;5093205;28;20755;-81
2022/09/20 02:23:51;;;;;;;4.00;1.35;;;13.90;99.90;;;;;;5085235;28;20049;-81
2022/09/20 02:26:19;;;;;;;3.85;1.88;;;13.90;99.90;;;;;;5088194;28;20111;-81
2022/09/20 02:28:52;;;;;;;4.22;1.92;;;13.90;99.90;;;;;;5082127;28;20025;-81
2022/09/20 02:31:50;;;;;;;2.88;1.65;;;13.90;99.90;;;;;;5083862;28;20041;-80
2022/09/20 02:34:31;;;;;;;6.13;2.78;;;13.90;99.90;;;;;;5088831;28;20020;-80
2022/09/20 02:37:19;;;;;;;4.40;2.10;;;13.90;99.90;;;;;;5088020;28;20028;-80
2022/09/20 02:40:01;;;;;;;7.38;2.45;;;13.90;99.90;;;;;;5089567;28;20115;-81
2022/09/20 02:43:01;;;;;;;2.30;1.60;;;13.90;99.90;;;;;;5086970;28;20028;-80
2022/09/20 02:45:41;;;;;;;3.08;1.70;;;13.90;99.90;;;;;;5090646;28;20028;-80
2022/09/20 02:50:48;;;;;;;3.30;1.85;;;13.90;99.90;;;;;;5065935;22;20045;-87
2022/09/20 02:53:41;;;;;;;6.72;2.92;;;13.90;99.90;;;;;;5049652;28;20104;-87
2022/09/20 02:56:34;;;;;;;3.27;2.07;;;13.90;99.90;;;;;;5021151;28;20115;-87
2022/09/20 02:59:07;;;;;;;4.63;2.00;;;13.90;99.90;;;;;;5023745;28;20033;-87
2022/09/20 03:02:03;;;;;;;3.60;1.53;;;13.90;99.90;;;;;;5028120;28;20033;-87
2022/09/20 03:04:44;;;;;;;4.53;1.83;;;13.90;99.90;;;;;;5027728;28;20116;-87
2022/09/20 03:07:36;;;;;;;5.28;2.40;;;13.90;99.90;;;;;;5031897;28;20087;-87
2022/09/20 03:10:20;;;;;;;5.88;2.03;;;13.80;99.90;;;;;;5044526;28;20116;-87
2022/09/20 03:13:00;;;;;;;7.57;2.78;;;13.90;99.90;;;;;;5046748;28;20477;-87
2022/09/20 03:15:36;;;;;;;7.53;2.60;;;13.90;99.90;;;;;;5022655;28;20038;-87
2022/09/20 03:18:05;;;;;;;3.85;2.10;;;13.90;99.90;;;;;;5027234;28;20020;-87
2022/09/20 03:20:46;;;;;;;5.57;2.47;;;13.90;99.90;;;;;;5026729;28;20040;-87
2022/09/20 03:23:32;;;;;;;5.80;2.70;;;13.90;99.90;;;;;;5029917;28;20095;-87
2022/09/20 03:26:15;;;;;;;3.88;1.73;;;13.90;99.90;;;;;;5046629;28;20025;-87
2022/09/20 03:28:54;;;;;;;7.40;2.05;;;13.90;99.90;;;;;;5020032;28;20028;-87
2022/09/20 03:31:43;;;;;;;4.90;2.40;;;13.90;99.90;;;;;;5046471;28;20036;-87
2022/09/20 03:34:48;;;;;;;7.63;2.20;;;13.90;99.90;;;;;;5048776;28;20112;-87
2022/09/20 03:37:20;;;;;;;5.03;2.22;;;13.90;99.90;;;;;;5031288;28;20027;-86
2022/09/20 03:40:00;;;;;;;7.43;2.67;;;13.90;99.90;;;;;;5028223;28;20108;-87
2022/09/20 03:42:28;;;;;;;5.93;2.72;;;13.90;99.90;;;;;;5028963;28;20029;-87
2022/09/20 03:45:18;;;;;;;7.25;2.58;;;13.90;99.90;;;;;;5030375;28;20257;-86
2022/09/20 03:48:23;;;;;;;4.50;2.25;;;13.80;99.90;;;;;;5028254;28;20374;-87
2022/09/20 03:51:07;;;;;;;6.00;2.70;;;13.80;99.90;;;;;;5017210;28;20040;-87
2022/09/20 03:53:57;;;;;;;4.13;2.22;;;13.80;99.90;;;;;;5052429;28;20060;-87
2022/09/20 03:56:53;;;;;;;6.72;2.38;;;13.80;99.90;;;;;;5049687;28;20029;-87
2022/09/20 03:59:36;;;;;;;4.05;2.42;;;13.80;99.90;;;;;;5031922;28;20053;-84
2022/09/20 04:02:23;;;;;;;9.05;2.70;;;13.80;99.90;;;;;;5034100;28;20029;-87
2022/09/20 04:04:55;;;;;;;5.50;1.95;;;13.80;99.90;;;;;;5051839;28;20029;-87
2022/09/20 04:07:34;;;;;;;7.38;3.08;;;13.80;99.90;;;;;;5034083;28;20025;-87
2022/09/20 04:10:18;;;;;;;6.88;2.25;;;13.80;99.90;;;;;;5029031;28;20053;-87
2022/09/20 04:12:56;;;;;;;5.90;2.30;;;13.80;99.90;;;;;;5052099;28;20013;-87
2022/09/20 04:15:31;;;;;;;7.35;2.60;;;13.80;99.90;;;;;;5051681;28;20469;-87
2022/09/20 04:18:15;;;;;;;7.00;2.05;;;13.80;99.90;;;;;;5048100;28;20525;-87
2022/09/20 04:21:02;;;;;;;3.78;2.70;;;13.80;99.90;;;;;;5050708;28;20436;-87
2022/09/20 04:23:48;;;;;;;4.60;2.13;;;13.80;99.90;;;;;;5006200;28;20048;-87
2022/09/20 04:26:21;;;;;;;6.60;2.40;;;13.80;99.90;;;;;;5050856;28;20029;-87
2022/09/20 04:28:54;;;;;;;5.70;2.40;;;13.80;99.90;;;;;;5051064;28;20041;-87
2022/09/20 04:31:45;;;;;;;7.22;2.45;;;13.80;99.90;;;;;;5032899;28;20029;-87
2022/09/20 04:34:20;;;;;;;3.83;1.90;;;13.80;99.90;;;;;;5052172;28;20392;-87
2022/09/20 04:36:57;;;;;;;6.10;2.35;;;13.80;99.90;;;;;;5050727;28;20024;-87
2022/09/20 04:39:46;;;;;;;8.48;3.55;;;13.80;99.90;;;;;;5024933;28;20087;-87
2022/09/20 04:42:36;;;;;;;4.43;2.28;;;13.80;99.90;;;;;;5037097;28;20032;-85
2022/09/20 04:45:33;;;;;;;4.75;2.30;;;13.80;99.90;;;;;;5049995;28;20373;-88
2022/09/20 04:48:44;;;;;;;7.82;2.63;;;13.80;99.90;;;;;;5032992;28;20120;-87
2022/09/20 04:51:47;;;;;;;4.57;2.13;;;13.80;99.90;;;;;;5031999;28;20067;-88
2022/09/20 04:54:44;;;;;;;6.65;2.10;;;13.80;99.90;;;;;;5048137;28;20036;-88
2022/09/20 04:57:45;;;;;;;5.07;2.30;;;13.80;99.90;;;;;;5032345;28;20116;-88
2022/09/20 05:00:17;;;;;;;7.05;2.20;;;13.80;99.90;;;;;;4991040;28;20498;-87
2022/09/20 05:03:19;;;;;;;4.68;2.35;;;13.80;99.90;;;;;;5032112;28;20025;-88
2022/09/20 05:05:45;;;;;;;3.63;2.60;;;13.80;99.90;;;;;;5028622;28;20108;-87
2022/09/20 05:08:32;;;;;;;2.70;1.98;;;13.80;99.90;;;;;;5034443;28;20059;-88
2022/09/20 05:11:01;;;;;;;4.25;2.40;;;13.80;99.90;;;;;;5050107;28;20160;-88
2022/09/20 05:13:49;;;;;;;5.90;2.25;;;13.80;99.90;;;;;;5047961;28;20486;-87
2022/09/20 05:16:47;;;;;;;4.03;2.10;;;13.70;99.90;;;;;;5029579;28;20048;-87
2022/09/20 05:19:30;;;;;;;9.63;2.50;;;13.80;99.90;;;;;;5031703;28;20477;-88
2022/09/20 05:22:26;;;;;;;4.45;2.40;;;13.80;99.90;;;;;;5033396;28;20103;-87
2022/09/20 05:25:24;;;;;;;3.95;2.33;;;13.80;99.90;;;;;;5031800;28;20119;-87
2022/09/20 05:28:07;;;;;;;5.88;2.35;;;13.80;99.90;;;;;;5029729;28;20025;-87
2022/09/20 05:30:45;;;;;;;5.45;2.60;;;13.70;99.90;;;;;;5032310;28;20028;-87
2022/09/20 05:33:32;;;;;;;3.78;1.85;;;13.80;99.90;;;;;;5050092;28;20079;-88
2022/09/20 05:36:26;;;;;;;5.03;2.30;;;13.80;99.90;;;;;;5044176;28;20021;-88
2022/09/20 05:39:22;;;;;;;4.15;2.58;;;13.80;99.90;;;;;;5030632;28;20025;-88
2022/09/20 05:42:36;;;;;;;5.55;2.50;;;13.70;99.90;;;;;;5043562;28;20032;-88
2022/09/20 05:45:22;;;;;;;5.40;2.22;;;13.70;99.90;;;;;;5013289;28;20038;-88
2022/09/20 05:48:11;;;;;;;8.63;2.80;;;13.70;99.90;;;;;;5031209;28;20040;-88
2022/09/20 05:50:58;;;;;;;5.45;2.40;;;13.70;99.90;;;;;;5045266;28;20029;-87
2022/09/20 05:53:52;;;;;;;6.78;2.72;;;13.70;99.90;;;;;;5026804;28;20444;-88
2022/09/20 05:56:29;;;;;;;5.47;2.20;;;13.70;99.90;;;;;;5049989;28;20036;-88
2022/09/20 05:58:58;;;;;;;3.45;2.22;;;13.70;99.90;;;;;;5034939;28;20639;-88
2022/09/20 06:01:38;;;;;;;4.57;2.42;;;13.70;99.90;;;;;;5031507;28;20374;-87
2022/09/20 06:04:13;;;;;;;5.45;2.20;;;13.70;99.90;;;;;;5029100;28;20167;-87
2022/09/20 06:06:38;;;;;;;6.72;2.45;;;13.70;99.90;;;;;;5046756;28;20039;-87
2022/09/20 06:09:40;;;;;;;4.20;2.38;;;13.70;99.90;;;;;;5032029;28;20021;-87
2022/09/20 06:12:15;;;;;;;6.43;2.33;;;13.80;99.90;;;;;;5032933;28;20049;-88
2022/09/20 06:15:04;;;;;;;5.65;2.55;;;13.70;99.90;;;;;;5024789;28;20539;-88
2022/09/20 06:17:47;;;;;;;9.52;2.53;;;13.80;99.90;;;;;;5044384;28;20029;-85
2022/09/20 06:20:51;;;;;;;8.35;2.22;;;13.70;99.90;;;;;;5045453;28;20055;-85
2022/09/20 06:23:17;;;;;;;6.40;2.28;;;13.70;99.90;;;;;;4992862;28;20087;-85
2022/09/20 06:25:54;;;;;;;5.82;2.22;;;13.70;99.90;;;;;;5031091;28;20039;-85
2022/09/20 06:28:22;;;;;;;4.93;2.40;;;13.80;99.90;;;;;;5050124;28;20029;-88
2022/09/20 06:30:50;;;;;;;7.00;2.60;;;13.70;99.90;;;;;;5031908;28;20032;-87
2022/09/20 06:33:24;;;;;;;5.05;2.50;;;13.70;99.90;;;;;;5031879;28;20017;-88
2022/09/20 06:35:56;;;;;;;5.00;2.53;;;13.80;99.90;;;;;;5029209;28;20408;-88
2022/09/20 06:41:36;;;;;;;5.03;2.30;;;13.80;99.90;;;;;;5046314;28;20036;-87
2022/09/20 06:44:03;;;;;;;4.78;2.90;;;13.70;99.90;;;;;;5049657;28;20102;-88
2022/09/20 06:46:31;;;;;;;3.85;2.20;;;13.70;99.90;;;;;;5047080;28;20032;-88
2022/09/20 06:48:58;;;;;;;3.30;2.10;;;13.70;99.90;;;;;;5046688;28;20083;-88
2022/09/20 06:51:26;;;;;;;4.65;2.65;;;13.80;99.90;;;;;;5047949;28;20029;-87
2022/09/20 06:53:53;;;;;;;3.80;2.28;;;13.80;99.90;;;;;;5026280;28;20019;-87
2022/09/20 06:56:26;;;;;;;5.70;2.55;;;13.70;99.90;;;;;;5045517;28;20572;-87
2022/09/20 06:58:52;;;;;;;4.15;2.50;;;13.80;99.90;;;;;;5032410;28;20021;-88
2022/09/20 07:01:19;;;;;;;6.70;2.55;;;13.80;99.90;;;;;;5031057;28;20512;-86
2022/09/20 07:03:45;;;;;;;4.22;3.05;;;13.80;99.90;;;;;;5044717;28;20029;-88
2022/09/20 07:06:12;;;;;;;6.05;2.75;;;13.80;99.90;;;;;;5048513;28;20086;-88
2022/09/20 07:08:38;;;;;;;4.47;2.42;;;13.80;99.90;;;;;;5031772;28;20024;-87
2022/09/20 07:11:14;;;;;;;4.50;2.40;;;13.80;99.90;;;;;;5031121;28;20029;-87
2022/09/20 07:13:44;;;;;;;6.30;3.00;;;13.80;99.90;;;;;;5031913;28;20028;-87
2022/09/20 07:16:13;;;;;;;7.32;3.55;;;13.80;99.90;;;;;;5031710;28;20024;-88
2022/09/20 07:18:40;;;;;;;7.68;3.13;;;13.80;99.90;;;;;;5045741;28;20366;-87
2022/09/20 07:21:14;;;;;;;4.40;2.78;;;13.80;99.90;;;;;;5047509;28;20036;-87
2022/09/20 07:23:40;;;;;;;6.03;2.85;;;13.80;99.90;;;;;;5032755;28;20099;-86
2022/09/20 07:26:06;;;;;;;7.95;3.58;;;13.80;99.90;;;;;;5052957;28;20028;-88
2022/09/20 07:28:33;;;;;;;6.97;3.95;;;13.80;99.90;;;;;;5036062;28;20055;-88
2022/09/20 07:31:00;;;;;;;7.32;4.88;;;13.80;99.90;;;;;;5034681;28;20516;-87
2022/09/20 07:33:25;;;;;;;5.55;3.63;;;13.80;99.90;;;;;;5031621;28;20025;-88
2022/09/20 07:35:54;;;;;;;9.88;3.72;;;13.80;99.90;;;;;;5032793;28;20028;-87
2022/09/20 07:38:23;;;;;;;7.55;5.03;;;13.80;99.90;;;;;;5035121;28;20108;-88
2022/09/20 07:40:57;;;;;;;13.82;4.38;;;13.80;99.90;;;;;;5035342;28;20079;-87
2022/09/20 07:43:23;;;;;;;13.25;5.35;;;13.80;99.90;;;;;;5033717;28;20031;-87
2022/09/20 07:45:54;;;;;;;8.82;5.20;;;13.80;99.90;;;;;;5052152;28;20039;-85
2022/09/20 07:48:25;;;;;;;8.98;4.90;;;13.80;99.90;;;;;;5025390;28;20124;-88
2022/09/20 07:51:01;;;;;;;11.65;5.30;;;13.80;99.90;;;;;;5035070;28;20396;-87
2022/09/20 07:53:28;;;;;;;13.25;5.97;;;13.80;99.90;;;;;;5034197;28;20485;-87
2022/09/20 07:55:57;;;;;;;13.15;5.90;;;13.80;99.90;;;;;;5051768;28;20028;-87
2022/09/20 07:58:23;;;;;;;10.15;5.53;;;13.80;99.90;;;;;;5048166;28;20032;-87
2022/09/20 08:00:54;;;;;;;10.95;6.43;;;13.80;99.90;;;;;;5035308;28;20108;-88
2022/09/20 08:03:20;;;;;;;12.18;6.13;;;13.80;99.90;;;;;;5052135;28;20206;-87
2022/09/20 08:05:46;;;;;;;15.00;5.97;;;13.80;99.90;;;;;;5051550;28;20029;-88
2022/09/20 08:08:12;;;;;;;15.27;6.32;;;13.80;99.90;;;;;;5033798;28;20116;-87
2022/09/20 08:10:40;;;;;;;10.73;6.30;;;13.80;99.90;;;;;;5033740;28;20044;-88
2022/09/20 08:13:06;;;;;;;8.88;5.80;;;13.80;99.90;;;;;;5052919;28;20025;-87
2022/09/20 08:15:32;;;;;;;14.27;6.40;;;13.80;99.90;;;;;;5032679;28;20029;-88
2022/09/20 08:17:57;;;;;;;9.82;6.55;;;13.80;99.90;;;;;;5034801;28;20021;-88
2022/09/20 08:20:24;;;;;;;13.20;6.60;;;13.80;99.90;;;;;;5034524;28;20139;-87
2022/09/20 08:22:50;;;;;;;9.98;6.50;;;13.80;99.90;;;;;;5013005;28;20645;-88
2022/09/20 08:25:16;;;;;;;12.15;6.38;;;13.80;99.90;;;;;;5045279;28;20033;-88
2022/09/20 08:27:43;;;;;;;11.20;6.85;;;13.80;99.90;;;;;;5030903;28;20086;-87
2022/09/20 08:30:10;;;;;;;10.88;7.00;;;13.80;99.90;;;;;;5034021;28;20094;-88
2022/09/20 08:32:37;;;;;;;11.40;6.80;;;13.80;99.90;;;;;;5034341;28;20017;-88
2022/09/20 08:35:03;;;;;;;13.32;7.15;;;13.80;99.90;;;;;;5052666;28;20075;-87
2022/09/20 08:37:29;;;;;;;15.23;7.07;;;13.80;99.90;;;;;;5049647;28;20840;-87
2022/09/20 08:40:00;;;;;;;10.88;6.82;;;13.80;99.90;;;;;;5034434;28;20021;-88
2022/09/20 08:42:35;;;;;;;7.75;5.65;;;13.80;99.90;;;;;;5040397;28;20508;-87
2022/09/20 08:45:06;;;;;;;12.80;6.45;;;13.80;99.90;;;;;;5034412;28;20116;-87
2022/09/20 08:47:35;;;;;;;11.77;6.60;;;13.80;99.90;;;;;;5033498;28;20033;-87
2022/09/20 08:50:04;;;;;;;11.40;5.85;;;13.80;99.90;;;;;;5034392;28;20507;-87
2022/09/20 08:52:36;;;;;;;10.90;6.35;;;13.80;99.90;;;;;;5048383;28;20032;-87
2022/09/20 08:55:26;;;;;;;9.93;6.15;;;13.80;99.90;;;;;;5033210;28;20027;-87
2022/09/20 08:57:57;;;;;;;9.43;5.97;;;13.80;99.90;;;;;;5044231;28;20032;-87
2022/09/20 09:00:26;;;;;;;8.65;5.85;;;13.80;99.90;;;;;;5031541;28;20025;-87
2022/09/20 09:02:59;;;;;;;10.70;5.38;;;13.80;99.90;;;;;;5031490;28;20515;-88
2022/09/20 09:05:31;;;;;;;9.18;5.80;;;13.80;99.90;;;;;;5049973;28;20052;-88
2022/09/20 09:07:59;;;;;;;8.30;5.85;;;13.80;99.90;;;;;;5051711;28;20024;-88
2022/09/20 09:10:29;;;;;;;10.05;5.78;;;13.80;99.90;;;;;;5031643;28;20029;-88
2022/09/20 09:12:55;;;;;;;7.32;5.55;;;13.80;99.90;;;;;;5048783;28;20077;-87
2022/09/20 09:15:28;;;;;;;10.25;5.35;;;13.80;99.90;;;;;;5026721;28;20051;-87
2022/09/20 09:17:55;;;;;;;10.63;5.33;;;13.80;99.90;;;;;;5028117;28;20017;-87
2022/09/20 09:20:22;;;;;;;9.45;5.25;;;13.80;99.90;;;;;;5033141;28;20032;-88
2022/09/20 09:22:57;;;;;;;9.75;4.35;;;13.80;99.90;;;;;;5005629;28;20041;-88
2022/09/20 09:25:33;;;;;;;10.38;4.60;;;13.80;99.90;;;;;;5033726;28;20123;-87
2022/09/20 09:28:10;;;;;;;8.00;4.53;;;13.80;99.90;;;;;;5019852;28;20120;-88
2022/09/20 09:30:42;;;;;;;6.60;4.13;;;13.80;99.90;;;;;;5027885;28;20025;-88
2022/09/20 09:33:32;;;;;;;9.40;4.97;;;13.80;99.90;;;;;;5030115;28;20032;-88
2022/09/20 09:36:06;;;;;;;5.68;4.20;;;13.80;99.90;;;;;;5031326;28;20114;-88
2022/09/20 09:38:36;;;;;;;8.15;4.00;;;13.80;99.90;;;;;;5044219;28;20039;-87
2022/09/20 09:41:24;;;;;;;6.53;4.40;;;13.80;99.90;;;;;;5023339;28;20059;-88
2022/09/20 09:44:01;;;;;;;5.32;4.22;;;13.80;99.90;;;;;;5044515;28;20027;-88
2022/09/20 09:46:31;;;;;;;6.60;3.92;;;13.80;99.90;;;;;;5049660;28;20025;-88
2022/09/20 09:49:15;;;;;;;11.07;3.97;;;13.80;99.90;;;;;;5033440;28;20230;-88
2022/09/20 09:52:01;;;;;;;8.43;3.72;;;13.80;99.90;;;;;;5046352;28;20029;-87
2022/09/20 09:54:36;;;;;;;6.47;4.15;;;13.80;99.90;;;;;;5021756;28;20120;-88
2022/09/20 09:57:42;;;;;;;13.95;3.50;;;13.80;99.90;;;;;;5031580;28;20087;-86
2022/09/20 10:00:12;;;;;;;11.35;3.67;;;13.90;99.90;;;;;;5033877;28;20037;-87
2022/09/20 10:03:15;;;;;;;5.10;3.10;;;13.90;99.90;;;;;;5051477;28;20516;-84
2022/09/20 10:06:12;;;;;;;4.77;3.13;;;13.90;99.90;;;;;;5052518;28;20029;-86
2022/09/20 10:08:53;;;;;;;5.00;3.35;;;13.90;99.90;;;;;;5054075;28;21028;-88
2022/09/20 10:11:40;;;;;;;7.75;3.85;;;13.90;99.90;;;;;;5027704;28;20037;-86
2022/09/20 10:14:28;;;;;;;5.90;3.55;;;13.90;99.90;;;;;;5021976;28;20040;-87
2022/09/20 10:17:18;;;;;;;11.00;3.13;;;13.80;99.90;;;;;;5030196;28;20094;-88
2022/09/20 10:20:06;;;;;;;3.83;2.20;;;13.90;99.90;;;;;;5015279;28;20036;-86
2022/09/20 10:22:52;;;;;;;5.22;3.05;;;13.90;99.90;;;;;;5007136;28;20032;-86
2022/09/20 10:25:39;;;;;;;7.47;2.85;;;13.80;99.90;;;;;;5048047;28;20380;-87
2022/09/20 10:28:10;;;;;;;5.35;2.60;;;13.80;99.90;;;;;;5027171;28;20078;-87
2022/09/20 10:31:08;;;;;;;7.25;2.80;;;13.80;99.90;;;;;;5030445;28;20112;-87
2022/09/20 10:33:41;;;;;;;8.10;2.38;;;13.80;99.90;;;;;;5049808;28;20094;-86
2022/09/20 10:36:07;;;;;;;5.10;2.53;;;13.80;99.90;;;;;;5043528;28;20084;-86
2022/09/20 10:38:41;;;;;;;6.78;2.50;;;13.80;99.90;;;;;;5030264;28;20037;-87
2022/09/20 10:44:15;;;;;;;;;;;13.80;99.90;;;;;;5039881;28;20124;-88
2022/09/20 10:47:05;;;;;;;4.22;2.13;;;13.80;99.90;;;;;;5045076;28;20340;-88
2022/09/20 10:49:41;;;;;;;5.55;1.98;;;13.80;99.90;;;;;;5041286;28;20549;-88
2022/09/20 10:52:30;;;;;;;4.00;2.00;;;13.80;99.90;;;;;;5019462;28;20099;-88
2022/09/20 10:55:08;;;;;;;2.40;1.88;;;13.80;99.90;;;;;;5047143;28;20496;-87
2022/09/20 10:58:02;;;;;;;4.55;3.17;;;13.80;99.90;;;;;;5041760;28;20021;-87
2022/09/20 11:01:16;;;;;;;6.50;2.85;;;13.80;99.90;;;;;;5027031;28;20025;-88
2022/09/20 11:03:53;;;;;;;2.75;1.63;;;13.80;99.90;;;;;;5029759;28;20036;-88
2022/09/20 11:06:56;;;;;;;5.85;2.13;;;13.80;99.90;;;;;;5048477;28;20025;-88
2022/09/20 11:09:27;;;;;;;10.68;2.45;;;13.80;99.90;;;;;;5040028;28;20037;-88
2022/09/20 11:12:22;;;;;;;5.20;2.53;;;13.80;99.90;;;;;;5026022;28;20029;-88
2022/09/20 11:14:54;;;;;;;5.05;2.40;;;13.80;99.90;;;;;;5037506;28;20033;-88
2022/09/20 11:17:39;;;;;;;4.90;2.33;;;13.90;99.90;;;;;;5050116;28;20118;-88
2022/09/20 11:20:25;;;;;;;3.92;2.40;;;13.90;99.90;;;;;;5030774;28;20108;-88
2022/09/20 11:23:20;;;;;;;3.67;2.35;;;13.90;99.90;;;;;;5014016;28;20029;-88
2022/09/20 11:25:56;;;;;;;3.25;2.05;;;13.90;99.90;;;;;;5030277;28;20489;-88
2022/09/20 11:28:41;;;;;;;3.85;1.92;;;13.90;99.90;;;;;;5029713;28;20039;-88
2022/09/20 11:31:17;;;;;;;5.25;1.80;;;13.90;99.90;;;;;;5031624;28;20033;-88
2022/09/20 11:33:48;;;;;;;4.88;2.50;;;13.90;99.90;;;;;;5031372;28;20031;-88
2022/09/20 11:36:25;;;;;;;5.38;2.13;;;13.90;99.90;;;;;;5048605;28;20071;-88
2022/09/20 11:39:00;;;;;;;6.30;2.72;;;13.90;99.90;;;;;;5028484;28;20027;-88
2022/09/20 11:41:28;;;;;;;5.45;1.70;;;13.90;99.90;;;;;;5023993;28;20036;-88
2022/09/20 11:44:11;;;;;;;2.72;1.88;;;13.90;99.90;;;;;;5030595;28;20029;-88
2022/09/20 11:47:06;;;;;;;7.32;2.42;;;13.90;99.90;;;;;;5030318;28;20481;-88
2022/09/20 11:49:49;;;;;;;3.15;2.30;;;13.90;99.90;;;;;;5027245;28;20135;-87
2022/09/20 11:52:41;;;;;;;6.38;1.95;;;13.90;99.90;;;;;;5036897;28;20123;-88
2022/09/20 11:55:42;;;;;;;5.18;2.03;;;13.90;99.90;;;;;;5017230;28;20029;-88
2022/09/20 11:58:15;;;;;;;4.53;2.70;;;13.90;99.90;;;;;;5036800;28;20065;-88
2022/09/20 12:00:44;;;;;;;5.63;2.00;;;13.90;99.90;;;;;;5041075;28;20107;-88
2022/09/20 12:03:35;;;;;;;5.25;2.13;;;13.90;99.90;;;;;;5049309;28;20078;-88
2022/09/20 12:06:06;;;;;;;10.02;2.65;;;13.90;99.90;;;;;;5045561;28;20021;-88
2022/09/20 12:08:39;;;;;;;3.70;1.63;;;13.90;99.90;;;;;;5031873;28;20039;-88
2022/09/20 12:11:12;;;;;;;7.03;2.33;;;14.00;99.90;;;;;;5026312;28;20052;-87
2022/09/20 12:13:41;;;;;;;8.70;2.33;;;14.00;99.90;;;;;;5042165;28;20119;-88
2022/09/20 12:16:15;;;;;;;3.17;1.85;;;14.00;99.90;;;;;;5049293;28;20420;-88
2022/09/20 12:18:53;;;;;;;4.38;1.83;;;14.00;99.90;;;;;;5040947;28;20024;-88
2022/09/20 12:21:20;;;;;;;5.15;2.28;;;14.00;99.90;;;;;;5044531;28;20059;-87
2022/09/20 12:23:52;;;;;;;6.75;2.30;;;14.00;99.90;;;;;;5010140;28;20049;-87
2022/09/20 12:26:19;;;;;;;6.57;2.40;;;14.00;99.90;;;;;;5028292;28;20029;-87
2022/09/20 12:28:57;;;;;;;6.07;2.00;;;14.00;99.90;;;;;;5034427;28;20028;-87
2022/09/20 12:34:09;;;;;;;3.25;2.17;;;14.00;99.90;;;;;;5046984;28;20047;-85
2022/09/20 12:36:43;;;;;;;12.00;4.78;;;14.00;99.90;;;;;;5026130;28;20469;-87
2022/09/20 12:39:11;;;;;;;12.88;2.22;;;14.00;99.90;;;;;;5050196;28;20059;-86
2022/09/20 12:41:48;;;;;;;9.75;1.58;;;14.00;99.90;;;;;;5034077;28;20033;-85
2022/09/20 12:44:32;;;;;;;4.13;1.83;;;13.90;99.90;;;;;;5032280;28;20036;-86
2022/09/20 12:47:03;;;;;;;9.82;2.40;;;13.80;99.90;;;;;;5034020;28;20025;-85
2022/09/20 12:52:55;;;;;;;3.60;1.52;;;13.80;99.90;;;;;;5052469;28;20143;-85
2022/09/20 12:55:45;;;;;;;6.47;1.65;;;13.70;99.90;;;;;;5046857;28;20029;-86
2022/09/20 12:58:13;;;;;;;3.38;1.75;;;13.70;99.90;;;;;;5050002;28;20044;-86
2022/09/20 13:00:56;;;;;;;5.10;1.70;;;13.70;99.90;;;;;;5033818;28;20037;-85
2022/09/20 13:03:42;;;;;;;6.95;2.38;;;13.80;99.90;;;;;;5034336;28;20029;-86
2022/09/20 13:06:11;;;;;;;7.43;2.22;;;13.80;99.90;;;;;;5033539;28;20504;-85
2022/09/20 13:09:01;;;;;;;9.00;1.40;;;13.80;99.90;;;;;;5049335;28;20386;-85
2022/09/20 13:11:44;;;;;;;5.43;1.90;;;13.80;99.90;;;;;;5032717;28;20029;-85
2022/09/20 13:14:11;;;;;;;7.05;2.08;;;13.80;99.90;;;;;;5049933;28;20040;-86
2022/09/20 13:16:59;;;;;;;6.28;1.77;;;13.80;99.90;;;;;;5041938;28;20033;-85
2022/09/20 13:19:36;;;;;;;4.22;1.80;;;13.90;99.90;;;;;;5032748;28;20409;-86
2022/09/20 13:22:10;;;;;;;4.65;1.50;;;14.00;99.90;;;;;;5032893;28;20024;-86
2022/09/20 13:24:41;;;;;;;4.05;1.23;;;14.00;99.90;;;;;;5001552;28;20045;-86
2022/09/20 13:27:24;;;;;;;9.07;1.90;;;14.10;99.90;;;;;;5051435;28;20033;-86
2022/09/20 13:29:50;;;;;;;3.10;1.70;;;14.10;99.90;;;;;;5027032;28;20382;-85
2022/09/20 13:32:33;;;;;;;2.63;1.27;;;14.10;99.90;;;;;;5032975;28;20680;-85
2022/09/20 13:35:19;;;;;;;7.88;1.73;;;14.10;99.90;;;;;;5028730;28;20046;-86
2022/09/20 13:37:54;;;;;;;8.57;1.90;;;14.10;99.90;;;;;;5031046;28;20025;-87
2022/09/20 13:40:41;;;;;;;3.70;1.33;;;14.10;99.90;;;;;;5027229;28;20458;-86
2022/09/20 13:43:39;;;;;;;3.75;1.45;;;14.10;99.90;;;;;;5051402;28;20037;-86
2022/09/20 13:46:07;;;;;;;3.80;1.63;;;14.00;99.90;;;;;;5137752;23;20037;-87
2022/09/20 13:48:32;;;;;;;6.72;1.75;;;14.10;99.90;;;;;;5063123;28;20048;-86
2022/09/20 13:50:58;;;;;;;3.08;1.25;;;14.00;99.90;;;;;;5067093;28;20059;-86
2022/09/20 13:53:25;;;;;;;4.55;1.30;;;13.90;99.90;;;;;;5065275;28;20025;-87
2022/09/20 13:55:54;;;;;;;2.70;1.25;;;14.00;99.90;;;;;;5067860;28;20056;-87